sensor_id;sensor_type;location;lat;lon;timestamp;pressure;altitude;pressure_sealevel;temperature;humidity
76046;BME280;64741;41.730;44.788;2023-02-24T00:01:57;994.8;;;21.2;38.3
76046;BME280;64741;41.730;44.788;2023-02-24T00:06:59;994.8;;;21.2;38.3
76046;BME280;64741;41.730;44.788;2023-02-24T00:12:00;994.9;;;21.2;38.3
76046;BME280;64741;41.730;44.788;2023-02-24T00:16:57;995;;;21.2;38.1
76046;BME280;64741;41.730;44.788;2023-02-24T00:22:05;995.1;;;21.1;38.1
76046;BME280;64741;41.730;44.788;2023-02-24T00:26:51;995.2;;;21.1;38
76046;BME280;64741;41.730;44.788;2023-02-24T00:31:57;995.3;;;21.1;38
76046;BME280;64741;41.730;44.788;2023-02-24T00:36:34;995.3;;;21.2;37.9
76046;BME280;64741;41.730;44.788;2023-02-24T00:41:59;995.3;;;21.2;38.2
76046;BME280;64741;41.730;44.788;2023-02-24T00:47:06;995.3;;;21.1;37.9
76046;BME280;64741;41.730;44.788;2023-02-24T00:51:57;995.4;;;21.1;37.5
76046;BME280;64741;41.730;44.788;2023-02-24T00:56:56;995.5;;;21.1;37.2
76046;BME280;64741;41.730;44.788;2023-02-24T01:02:01;995.4;;;21.1;37
76046;BME280;64741;41.730;44.788;2023-02-24T01:06:58;995.3;;;21.1;37.2
76046;BME280;64741;41.730;44.788;2023-02-24T01:12:05;995.2;;;21.1;37.4
76046;BME280;64741;41.730;44.788;2023-02-24T01:16:59;995.4;;;21.1;37.6
76046;BME280;64741;41.730;44.788;2023-02-24T01:21:57;995.5;;;21.1;37.5
76046;BME280;64741;41.730;44.788;2023-02-24T01:27:05;995.5;;;21.1;37.5
76046;BME280;64741;41.730;44.788;2023-02-24T01:31:57;995.7;;;21.1;37.5
76046;BME280;64741;41.730;44.788;2023-02-24T01:36:58;995.7;;;21.1;37.4
76046;BME280;64741;41.730;44.788;2023-02-24T01:41:58;995.7;;;21.1;37.4
76046;BME280;64741;41.730;44.788;2023-02-24T01:46:49;995.8;;;21.1;37.3
76046;BME280;64741;41.730;44.788;2023-02-24T01:52:06;995.9;;;21.1;37.4
76046;BME280;64741;41.730;44.788;2023-02-24T01:56:56;996;;;21.1;37.5
76046;BME280;64741;41.730;44.788;2023-02-24T02:01:59;996.1;;;21.1;37.5
76046;BME280;64741;41.730;44.788;2023-02-24T02:07:01;996.1;;;21.1;37.6
76046;BME280;64741;41.730;44.788;2023-02-24T02:11:58;996.1;;;21.1;37.8
76046;BME280;64741;41.730;44.788;2023-02-24T02:17:05;996.2;;;21.1;37.9
76046;BME280;64741;41.730;44.788;2023-02-24T02:22:00;996.3;;;21.1;37.8
76046;BME280;64741;41.730;44.788;2023-02-24T02:27:02;996.4;;;21.1;37.2
76046;BME280;64741;41.730;44.788;2023-02-24T02:32:11;996.6;;;21.1;37.3
76046;BME280;64741;41.730;44.788;2023-02-24T02:36:58;996.7;;;21.1;37.3
76046;BME280;64741;41.730;44.788;2023-02-24T02:42:07;996.6;;;21.1;37.2
76046;BME280;64741;41.730;44.788;2023-02-24T02:46:59;996.6;;;21.1;37.5
76046;BME280;64741;41.730;44.788;2023-02-24T02:52:00;996.7;;;21.1;37.8
76046;BME280;64741;41.730;44.788;2023-02-24T02:56:58;996.7;;;21.1;37.7
76046;BME280;64741;41.730;44.788;2023-02-24T03:01:57;996.8;;;21.1;37.4
76046;BME280;64741;41.730;44.788;2023-02-24T03:07:04;996.9;;;21.1;37.4
76046;BME280;64741;41.730;44.788;2023-02-24T03:11:59;997;;;21.1;37.3
76046;BME280;64741;41.730;44.788;2023-02-24T03:16:59;997.1;;;21.1;37.3
76046;BME280;64741;41.730;44.788;2023-02-24T03:22:02;997.1;;;21.1;37.4
76046;BME280;64741;41.730;44.788;2023-02-24T03:26:59;997.2;;;21.1;37.4
76046;BME280;64741;41.730;44.788;2023-02-24T03:32:03;997.2;;;21.1;37.4
76046;BME280;64741;41.730;44.788;2023-02-24T03:36:56;997.3;;;21.1;37.5
76046;BME280;64741;41.730;44.788;2023-02-24T03:42:03;997.4;;;21.1;37.9
76046;BME280;64741;41.730;44.788;2023-02-24T03:47:01;997.4;;;21.1;38.1
76046;BME280;64741;41.730;44.788;2023-02-24T03:51:43;997.5;;;21.1;37.7
76046;BME280;64741;41.730;44.788;2023-02-24T03:56:50;997.6;;;21;37.5
76046;BME280;64741;41.730;44.788;2023-02-24T04:01:59;997.6;;;21;37.7
76046;BME280;64741;41.730;44.788;2023-02-24T04:06:59;997.5;;;21;37.9
76046;BME280;64741;41.730;44.788;2023-02-24T04:12:03;997.6;;;21;38
76046;BME280;64741;41.730;44.788;2023-02-24T04:16:59;997.7;;;21;37.8
76046;BME280;64741;41.730;44.788;2023-02-24T04:22:05;997.8;;;21;37.9
76046;BME280;64741;41.730;44.788;2023-02-24T04:26:59;997.9;;;21;37.5
76046;BME280;64741;41.730;44.788;2023-02-24T04:31:57;998;;;21;37.4
76046;BME280;64741;41.730;44.788;2023-02-24T04:37:00;998.2;;;21;37.4
76046;BME280;64741;41.730;44.788;2023-02-24T04:41:57;998.4;;;21;37.2
76046;BME280;64741;41.730;44.788;2023-02-24T04:47:04;998.4;;;21;37.3
76046;BME280;64741;41.730;44.788;2023-02-24T04:51:56;998.5;;;21;37.3
76046;BME280;64741;41.730;44.788;2023-02-24T04:56:56;998.6;;;21;37.2
76046;BME280;64741;41.730;44.788;2023-02-24T05:01:56;998.6;;;21;37.3
76046;BME280;64741;41.730;44.788;2023-02-24T05:06:53;998.6;;;21;37.3
76046;BME280;64741;41.730;44.788;2023-02-24T05:12:00;998.6;;;20.9;37.2
76046;BME280;64741;41.730;44.788;2023-02-24T05:16:54;998.7;;;20.9;37.2
76046;BME280;64741;41.730;44.788;2023-02-24T05:21:33;998.8;;;20.9;37.2
76046;BME280;64741;41.730;44.788;2023-02-24T05:26:57;998.8;;;20.9;37.2
76046;BME280;64741;41.730;44.788;2023-02-24T05:32:01;998.9;;;20.9;37.2
76046;BME280;64741;41.730;44.788;2023-02-24T05:36:59;999;;;21;37.2
76046;BME280;64741;41.730;44.788;2023-02-24T05:41:58;999;;;21;37.3
76046;BME280;64741;41.730;44.788;2023-02-24T05:46:58;999.1;;;21;37.4
76046;BME280;64741;41.730;44.788;2023-02-24T05:51:55;999.2;;;21;37.4
76046;BME280;64741;41.730;44.788;2023-02-24T05:57:01;999.2;;;21.1;37.5
76046;BME280;64741;41.730;44.788;2023-02-24T06:01:57;999.3;;;21.1;37.5
76046;BME280;64741;41.730;44.788;2023-02-24T06:06:56;999.3;;;21.1;37.5
76046;BME280;64741;41.730;44.788;2023-02-24T06:11:58;999.2;;;21.1;37.4
76046;BME280;64741;41.730;44.788;2023-02-24T06:16:56;999.4;;;21.1;37.4
76046;BME280;64741;41.730;44.788;2023-02-24T06:22:02;999.4;;;21.1;37.4
76046;BME280;64741;41.730;44.788;2023-02-24T06:26:57;999.4;;;21.1;37.4
76046;BME280;64741;41.730;44.788;2023-02-24T06:31:52;999.4;;;21.2;37.5
76046;BME280;64741;41.730;44.788;2023-02-24T06:36:54;999.3;;;21.1;37.5
76046;BME280;64741;41.730;44.788;2023-02-24T06:41:52;999.3;;;21.1;37.6
76046;BME280;64741;41.730;44.788;2023-02-24T06:47:03;999.3;;;21.1;37.4
76046;BME280;64741;41.730;44.788;2023-02-24T06:51:38;999.2;;;21.1;37.3
76046;BME280;64741;41.730;44.788;2023-02-24T06:56:53;999.2;;;21.2;37.4
76046;BME280;64741;41.730;44.788;2023-02-24T07:01:55;999.3;;;21.1;37.3
76046;BME280;64741;41.730;44.788;2023-02-24T07:06:56;999.2;;;21.1;37.3
76046;BME280;64741;41.730;44.788;2023-02-24T07:12:01;999.2;;;21.1;37.3
76046;BME280;64741;41.730;44.788;2023-02-24T07:16:57;999.1;;;21.1;37.3
76046;BME280;64741;41.730;44.788;2023-02-24T07:21:58;999.1;;;21.1;37.2
76046;BME280;64741;41.730;44.788;2023-02-24T07:26:55;999.1;;;21.2;37.2
76046;BME280;64741;41.730;44.788;2023-02-24T07:31:57;999.2;;;21.2;37.3
76046;BME280;64741;41.730;44.788;2023-02-24T07:37:03;999.1;;;21.2;37.4
76046;BME280;64741;41.730;44.788;2023-02-24T07:41:58;999.1;;;21.2;37.8
76046;BME280;64741;41.730;44.788;2023-02-24T07:46:56;999.1;;;21.2;37.8
76046;BME280;64741;41.730;44.788;2023-02-24T07:51:58;999.2;;;21.2;38.7
76046;BME280;64741;41.730;44.788;2023-02-24T07:56:57;999.2;;;21.2;39.4
76046;BME280;64741;41.730;44.788;2023-02-24T08:02:02;999.2;;;21.3;39.7
76046;BME280;64741;41.730;44.788;2023-02-24T08:06:59;999.2;;;21.3;39.8
76046;BME280;64741;41.730;44.788;2023-02-24T08:11:55;999.2;;;21.3;39.9
76046;BME280;64741;41.730;44.788;2023-02-24T08:16:59;999.2;;;21.3;39.9
76046;BME280;64741;41.730;44.788;2023-02-24T08:21:57;999.3;;;21.3;39.5
76046;BME280;64741;41.730;44.788;2023-02-24T08:27:02;999.3;;;21.3;39.5
76046;BME280;64741;41.730;44.788;2023-02-24T08:31:55;999.3;;;21.4;39.6
76046;BME280;64741;41.730;44.788;2023-02-24T08:36:57;999.2;;;21.4;39.4
76046;BME280;64741;41.730;44.788;2023-02-24T08:41:58;999.2;;;21.4;39.3
76046;BME280;64741;41.730;44.788;2023-02-24T08:46:54;999.2;;;21.5;39.2
76046;BME280;64741;41.730;44.788;2023-02-24T08:52:00;999.2;;;21.5;39.2
76046;BME280;64741;41.730;44.788;2023-02-24T08:56:54;999.2;;;21.5;39
76046;BME280;64741;41.730;44.788;2023-02-24T09:01:53;999.2;;;21.5;38.9
76046;BME280;64741;41.730;44.788;2023-02-24T09:06:52;999.2;;;21.5;38.9
76046;BME280;64741;41.730;44.788;2023-02-24T09:11:53;999;;;21.6;39.3
76046;BME280;64741;41.730;44.788;2023-02-24T09:17:01;999.1;;;21.6;39.3
76046;BME280;64741;41.730;44.788;2023-02-24T09:21:54;999.2;;;21.7;39.4
76046;BME280;64741;41.730;44.788;2023-02-24T09:26:55;999.2;;;21.7;39.1
76046;BME280;64741;41.730;44.788;2023-02-24T09:31:59;999.2;;;21.7;39
76046;BME280;64741;41.730;44.788;2023-02-24T09:36:56;999.2;;;21.8;38.2
76046;BME280;64741;41.730;44.788;2023-02-24T09:42:01;999.2;;;21.8;37.6
76046;BME280;64741;41.730;44.788;2023-02-24T09:46:58;999.2;;;21.8;37.2
76046;BME280;64741;41.730;44.788;2023-02-24T09:51:56;999.3;;;21.8;36.8
76046;BME280;64741;41.730;44.788;2023-02-24T09:57:00;999.3;;;21.8;36.1
76046;BME280;64741;41.730;44.788;2023-02-24T10:01:58;999.2;;;21.8;36.1
76046;BME280;64741;41.730;44.788;2023-02-24T10:07:03;999.2;;;21.8;36.2
76046;BME280;64741;41.730;44.788;2023-02-24T10:11:54;999.1;;;21.8;36.5
76046;BME280;64741;41.730;44.788;2023-02-24T10:16:57;999.2;;;21.8;36.6
76046;BME280;64741;41.730;44.788;2023-02-24T10:21:57;999.2;;;21.8;36.7
76046;BME280;64741;41.730;44.788;2023-02-24T10:26:55;999.2;;;21.9;36.8
76046;BME280;64741;41.730;44.788;2023-02-24T10:32:06;999.2;;;21.9;36.9
76046;BME280;64741;41.730;44.788;2023-02-24T10:36:48;999.2;;;21.9;36.7
76046;BME280;64741;41.730;44.788;2023-02-24T10:41:55;999.1;;;21.9;36.7
76046;BME280;64741;41.730;44.788;2023-02-24T10:46:58;999.2;;;21.9;36.9
76046;BME280;64741;41.730;44.788;2023-02-24T10:51:56;999.1;;;21.9;36.9
76046;BME280;64741;41.730;44.788;2023-02-24T10:57:04;999.2;;;21.9;37
76046;BME280;64741;41.730;44.788;2023-02-24T11:02:00;999.2;;;21.9;37
76046;BME280;64741;41.730;44.788;2023-02-24T11:07:01;999.2;;;21.9;37
76046;BME280;64741;41.730;44.788;2023-02-24T11:11:58;999.2;;;21.9;37
76046;BME280;64741;41.730;44.788;2023-02-24T11:16:57;999.3;;;21.9;37
76046;BME280;64741;41.730;44.788;2023-02-24T11:22:03;999.2;;;21.9;37.1
76046;BME280;64741;41.730;44.788;2023-02-24T11:26:55;999.3;;;21.9;37.1
76046;BME280;64741;41.730;44.788;2023-02-24T11:31:54;999.3;;;21.9;37.1
76046;BME280;64741;41.730;44.788;2023-02-24T11:36:57;999.3;;;21.9;37
76046;BME280;64741;41.730;44.788;2023-02-24T11:41:56;999.3;;;21.9;37
76046;BME280;64741;41.730;44.788;2023-02-24T11:47:04;999.2;;;21.9;37.2
76046;BME280;64741;41.730;44.788;2023-02-24T11:51:55;999.3;;;21.9;37.2
76046;BME280;64741;41.730;44.788;2023-02-24T11:56:56;999.3;;;21.9;37.1
76046;BME280;64741;41.730;44.788;2023-02-24T12:01:56;999.2;;;21.9;37.2
76046;BME280;64741;41.730;44.788;2023-02-24T12:06:54;999.2;;;21.9;37.3
76046;BME280;64741;41.730;44.788;2023-02-24T12:12:01;999.3;;;21.9;37.6
76046;BME280;64741;41.730;44.788;2023-02-24T12:16:57;999.3;;;21.9;37.9
76046;BME280;64741;41.730;44.788;2023-02-24T12:21:56;999.3;;;21.9;38.6
76046;BME280;64741;41.730;44.788;2023-02-24T12:27:01;999.3;;;21.9;40.2
76046;BME280;64741;41.730;44.788;2023-02-24T12:31:55;999.4;;;21.9;41.9
76046;BME280;64741;41.730;44.788;2023-02-24T12:37:41;999.4;;;21.9;43.1
76046;BME280;64741;41.730;44.788;2023-02-24T12:41:57;999.4;;;21.9;43.2
76046;BME280;64741;41.730;44.788;2023-02-24T12:46:33;999.4;;;22;43.2
76046;BME280;64741;41.730;44.788;2023-02-24T12:52:00;999.5;;;22;43.2
76046;BME280;64741;41.730;44.788;2023-02-24T12:56:56;999.5;;;22;43.1
76046;BME280;64741;41.730;44.788;2023-02-24T13:02:02;999.5;;;22;42.9
76046;BME280;64741;41.730;44.788;2023-02-24T13:06:58;999.6;;;22;42.6
76046;BME280;64741;41.730;44.788;2023-02-24T13:11:57;999.6;;;22;42.4
76046;BME280;64741;41.730;44.788;2023-02-24T13:17:05;999.7;;;21.9;42.3
76046;BME280;64741;41.730;44.788;2023-02-24T13:21:58;999.7;;;21.9;42
76046;BME280;64741;41.730;44.788;2023-02-24T13:27:05;999.8;;;21.9;41.5
76046;BME280;64741;41.730;44.788;2023-02-24T13:32:03;999.8;;;21.8;41.2
76046;BME280;64741;41.730;44.788;2023-02-24T13:36:59;999.9;;;21.8;40.8
76046;BME280;64741;41.730;44.788;2023-02-24T13:42:00;999.9;;;21.8;40.6
76046;BME280;64741;41.730;44.788;2023-02-24T13:47:07;999.9;;;21.8;40.6
76046;BME280;64741;41.730;44.788;2023-02-24T13:51:56;1000;;;21.7;40.5
76046;BME280;64741;41.730;44.788;2023-02-24T13:57:03;1000;;;21.7;40.4
76046;BME280;64741;41.730;44.788;2023-02-24T14:01:57;1000;;;21.7;40.3
76046;BME280;64741;41.730;44.788;2023-02-24T14:06:54;1000;;;21.7;40.2
76046;BME280;64741;41.730;44.788;2023-02-24T14:11:42;1000.1;;;21.7;40.2
76046;BME280;64741;41.730;44.788;2023-02-24T14:16:57;1000.2;;;21.6;40.1
76046;BME280;64741;41.730;44.788;2023-02-24T14:22:02;1000.2;;;21.6;40
76046;BME280;64741;41.730;44.788;2023-02-24T14:26:43;1000.3;;;21.6;39.9
76046;BME280;64741;41.730;44.788;2023-02-24T14:31:55;1000.4;;;21.6;39.8
76046;BME280;64741;41.730;44.788;2023-02-24T14:36:59;1000.5;;;21.6;39.8
76046;BME280;64741;41.730;44.788;2023-02-24T14:42:02;1000.8;;;21.6;39.8
76046;BME280;64741;41.730;44.788;2023-02-24T14:46:47;1000.9;;;21.6;39.6
76046;BME280;64741;41.730;44.788;2023-02-24T14:51:59;1001.1;;;21.6;39.6
76046;BME280;64741;41.730;44.788;2023-02-24T14:56:57;1001.1;;;21.6;39.5
76046;BME280;64741;41.730;44.788;2023-02-24T15:01:59;1001.2;;;21.5;39.4
76046;BME280;64741;41.730;44.788;2023-02-24T15:06:55;1001.3;;;21.5;39.3
76046;BME280;64741;41.730;44.788;2023-02-24T15:12:07;1001.5;;;21.5;39.3
76046;BME280;64741;41.730;44.788;2023-02-24T15:16:59;1001.7;;;21.5;39.2
76046;BME280;64741;41.730;44.788;2023-02-24T15:21:57;1001.8;;;21.5;39.2
76046;BME280;64741;41.730;44.788;2023-02-24T15:26:57;1001.9;;;21.5;39.1
76046;BME280;64741;41.730;44.788;2023-02-24T15:31:55;1002;;;21.4;39.1
76046;BME280;64741;41.730;44.788;2023-02-24T15:37:13;1002.2;;;21.4;39.1
76046;BME280;64741;41.730;44.788;2023-02-24T15:42:04;1002.3;;;21.5;39.1
76046;BME280;64741;41.730;44.788;2023-02-24T15:46:55;1002.4;;;21.4;39.1
76046;BME280;64741;41.730;44.788;2023-02-24T15:51:59;1002.4;;;21.4;39.1
76046;BME280;64741;41.730;44.788;2023-02-24T15:56:57;1002.5;;;21.4;39.1
76046;BME280;64741;41.730;44.788;2023-02-24T16:02:01;1002.5;;;21.4;39.1
76046;BME280;64741;41.730;44.788;2023-02-24T16:06:57;1002.6;;;21.4;39
76046;BME280;64741;41.730;44.788;2023-02-24T16:11:51;1002.7;;;21.4;39.1
76046;BME280;64741;41.730;44.788;2023-02-24T16:16:55;1002.8;;;21.4;39.1
76046;BME280;64741;41.730;44.788;2023-02-24T16:21:55;1002.9;;;21.4;39.1
76046;BME280;64741;41.730;44.788;2023-02-24T16:27:02;1002.9;;;21.4;39.2
76046;BME280;64741;41.730;44.788;2023-02-24T16:31:37;1002.9;;;21.4;39.2
76046;BME280;64741;41.730;44.788;2023-02-24T16:36:55;1003;;;21.4;39.2
76046;BME280;64741;41.730;44.788;2023-02-24T16:41:57;1003.1;;;21.4;39.2
76046;BME280;64741;41.730;44.788;2023-02-24T16:46:55;1003.1;;;21.4;39.2
76046;BME280;64741;41.730;44.788;2023-02-24T16:51:59;1003.2;;;21.4;39.2
76046;BME280;64741;41.730;44.788;2023-02-24T16:56:57;1003.2;;;21.4;39.2
76046;BME280;64741;41.730;44.788;2023-02-24T17:01:55;1003.3;;;21.4;39.3
76046;BME280;64741;41.730;44.788;2023-02-24T17:06:57;1003.4;;;21.4;39.6
76046;BME280;64741;41.730;44.788;2023-02-24T17:11:55;1003.4;;;21.5;40.5
76046;BME280;64741;41.730;44.788;2023-02-24T17:17:01;1003.5;;;21.6;40.9
76046;BME280;64741;41.730;44.788;2023-02-24T17:21:55;1003.5;;;21.6;41.3
76046;BME280;64741;41.730;44.788;2023-02-24T17:26:53;1003.5;;;21.6;41.2
76046;BME280;64741;41.730;44.788;2023-02-24T17:31:37;1003.6;;;21.6;41.4
76046;BME280;64741;41.730;44.788;2023-02-24T17:36:53;1003.6;;;21.7;41.9
76046;BME280;64741;41.730;44.788;2023-02-24T17:41:59;1003.6;;;21.8;43.2
76046;BME280;64741;41.730;44.788;2023-02-24T17:46:53;1003.6;;;21.9;43.9
76046;BME280;64741;41.730;44.788;2023-02-24T17:51:53;1003.7;;;22;43.1
76046;BME280;64741;41.730;44.788;2023-02-24T17:56:57;1003.7;;;22.1;42.5
76046;BME280;64741;41.730;44.788;2023-02-24T18:01:55;1003.8;;;22.1;42
76046;BME280;64741;41.730;44.788;2023-02-24T18:06:59;1003.9;;;22.2;41.4
76046;BME280;64741;41.730;44.788;2023-02-24T18:11:53;1003.9;;;22.2;41.1
76046;BME280;64741;41.730;44.788;2023-02-24T18:16:39;1003.9;;;22.2;40.7
76046;BME280;64741;41.730;44.788;2023-02-24T18:21:55;1003.9;;;22.3;40.5
76046;BME280;64741;41.730;44.788;2023-02-24T18:26:55;1004;;;22.3;40.9
76046;BME280;64741;41.730;44.788;2023-02-24T18:31:43;1004;;;22.3;42.4
76046;BME280;64741;41.730;44.788;2023-02-24T18:36:55;1004;;;22.4;43
76046;BME280;64741;41.730;44.788;2023-02-24T18:41:53;1004;;;22.4;42.1
76046;BME280;64741;41.730;44.788;2023-02-24T18:46:57;1004;;;22.4;41.9
76046;BME280;64741;41.730;44.788;2023-02-24T18:51:53;1004;;;22.4;42
76046;BME280;64741;41.730;44.788;2023-02-24T18:57:01;1004;;;22.4;42.3
76046;BME280;64741;41.730;44.788;2023-02-24T19:01:53;1004;;;22.4;42.1
76046;BME280;64741;41.730;44.788;2023-02-24T19:06:51;1004;;;22.4;41.8
76046;BME280;64741;41.730;44.788;2023-02-24T19:11:56;1004.1;;;22.4;41.6
76046;BME280;64741;41.730;44.788;2023-02-24T19:16:53;1004.1;;;22.4;41.3
76046;BME280;64741;41.730;44.788;2023-02-24T19:22:01;1004.1;;;22.4;41.1
76046;BME280;64741;41.730;44.788;2023-02-24T19:26:55;1004.1;;;22.4;41
76046;BME280;64741;41.730;44.788;2023-02-24T19:31:53;1004.1;;;22.4;40.7
76046;BME280;64741;41.730;44.788;2023-02-24T19:36:55;1004.1;;;22.4;40.6
76046;BME280;64741;41.730;44.788;2023-02-24T19:41:53;1004;;;22.4;40.5
76046;BME280;64741;41.730;44.788;2023-02-24T19:47:01;1004;;;22.4;40.2
76046;BME280;64741;41.730;44.788;2023-02-24T19:51:55;1004;;;22.4;40.1
76046;BME280;64741;41.730;44.788;2023-02-24T19:56:51;1004.1;;;22.4;39.9
76046;BME280;64741;41.730;44.788;2023-02-24T20:01:53;1004;;;22.3;39.7
76046;BME280;64741;41.730;44.788;2023-02-24T20:06:54;1004;;;22.3;39.6
76046;BME280;64741;41.730;44.788;2023-02-24T20:12:01;1004;;;22.2;39.5
76046;BME280;64741;41.730;44.788;2023-02-24T20:16:55;1004;;;22.2;39.5
76046;BME280;64741;41.730;44.788;2023-02-24T20:21:53;1004;;;22.2;39.4
76046;BME280;64741;41.730;44.788;2023-02-24T20:26:57;1004;;;22.2;39.3
76046;BME280;64741;41.730;44.788;2023-02-24T20:31:53;1003.9;;;22.1;39.3
76046;BME280;64741;41.730;44.788;2023-02-24T20:36:59;1003.9;;;22.1;39.2
76046;BME280;64741;41.730;44.788;2023-02-24T20:41:55;1003.9;;;22.1;39.2
76046;BME280;64741;41.730;44.788;2023-02-24T20:46:55;1004;;;22;39.2
76046;BME280;64741;41.730;44.788;2023-02-24T20:51:57;1004;;;22;39.1
76046;BME280;64741;41.730;44.788;2023-02-24T20:56:55;1004;;;22;39.1
76046;BME280;64741;41.730;44.788;2023-02-24T21:02:01;1004;;;21.9;39.1
76046;BME280;64741;41.730;44.788;2023-02-24T21:06:55;1004;;;21.9;39.1
76046;BME280;64741;41.730;44.788;2023-02-24T21:12:01;1004;;;21.9;39.1
76046;BME280;64741;41.730;44.788;2023-02-24T21:16:55;1003.9;;;21.9;39.1
76046;BME280;64741;41.730;44.788;2023-02-24T21:21:59;1004;;;21.9;39
76046;BME280;64741;41.730;44.788;2023-02-24T21:26:51;1004;;;21.9;39
76046;BME280;64741;41.730;44.788;2023-02-24T21:31:55;1004.1;;;21.8;39
76046;BME280;64741;41.730;44.788;2023-02-24T21:37:01;1004.1;;;21.8;39
76046;BME280;64741;41.730;44.788;2023-02-24T21:41:55;1004.1;;;21.8;38.9
76046;BME280;64741;41.730;44.788;2023-02-24T21:47:01;1004.1;;;21.8;38.9
76046;BME280;64741;41.730;44.788;2023-02-24T21:51:55;1004.1;;;21.8;38.9
76046;BME280;64741;41.730;44.788;2023-02-24T21:56:55;1004.1;;;21.7;39
76046;BME280;64741;41.730;44.788;2023-02-24T22:01:59;1004.1;;;21.7;39
76046;BME280;64741;41.730;44.788;2023-02-24T22:06:55;1004;;;21.7;39
76046;BME280;64741;41.730;44.788;2023-02-24T22:11:43;1004.1;;;21.7;39
76046;BME280;64741;41.730;44.788;2023-02-24T22:16:57;1004;;;21.7;39
76046;BME280;64741;41.730;44.788;2023-02-24T22:21:47;1004;;;21.7;38.9
76046;BME280;64741;41.730;44.788;2023-02-24T22:27:01;1004.1;;;21.7;38.9
76046;BME280;64741;41.730;44.788;2023-02-24T22:31:55;1004.1;;;21.7;38.9
76046;BME280;64741;41.730;44.788;2023-02-24T22:36:59;1004.1;;;21.6;38.9
76046;BME280;64741;41.730;44.788;2023-02-24T22:41:57;1004.1;;;21.6;38.9
76046;BME280;64741;41.730;44.788;2023-02-24T22:46:55;1004;;;21.6;38.9
76046;BME280;64741;41.730;44.788;2023-02-24T22:52:01;1004;;;21.6;38.9
76046;BME280;64741;41.730;44.788;2023-02-24T22:56:41;1003.9;;;21.6;38.9
76046;BME280;64741;41.730;44.788;2023-02-24T23:02:01;1003.9;;;21.6;38.9
76046;BME280;64741;41.730;44.788;2023-02-24T23:06:55;1003.9;;;21.6;38.9
76046;BME280;64741;41.730;44.788;2023-02-24T23:11:53;1003.9;;;21.6;38.9
76046;BME280;64741;41.730;44.788;2023-02-24T23:17:01;1003.9;;;21.5;38.9
76046;BME280;64741;41.730;44.788;2023-02-24T23:21:55;1003.9;;;21.5;39
76046;BME280;64741;41.730;44.788;2023-02-24T23:27:01;1003.8;;;21.5;38.9
76046;BME280;64741;41.730;44.788;2023-02-24T23:31:57;1003.7;;;21.5;38.9
76046;BME280;64741;41.730;44.788;2023-02-24T23:36:55;1003.6;;;21.5;38.8
76046;BME280;64741;41.730;44.788;2023-02-24T23:42:01;1003.6;;;21.5;38.9
76046;BME280;64741;41.730;44.788;2023-02-24T23:46:55;1003.5;;;21.5;38.9
76046;BME280;64741;41.730;44.788;2023-02-24T23:52:01;1003.5;;;21.5;38.9
76046;BME280;64741;41.730;44.788;2023-02-24T23:56:57;1003.4;;;21.5;38.9
